• Join FlightAware (Why Join?)
  • Login
  • US Flag 
06:59AM EDT


 

Airport Tracker/Info


-or-


 

Live Flight TrackerFlight Track Log ✈ ASQ5678 ✈ 11-Aug-2013 ✈ KLIT - KIAH

Flight Track Log - Related Links

Times and Time Zones

All times are in EDT time to prevent confusion due to time zone crossing. See the ASQ5678 flight status page for this flight to view local times or setup timezone preferences in your user account.

Time Position Orientation Groundspeed Altitude Reporting Facility
EDT Latitude Longitude Course Direction KTS MPH feet Rate Location/Type
07:29AM 34.7394 -92.1919 193° South 169 194 1,200  Level Memphis Center
07:30AM 34.7256 -92.1436 109° East 203 234 2,700 1,860 Climbing Memphis Center
07:31AM 34.6689 -92.1600 193° South 234 269 5,000 2,340 Climbing Memphis Center
07:32AM 34.4911 -92.3908 190° South  Level Estimated
07:32AM 34.6036 -92.1964 205° Southwest 270 311 7,500  Level Memphis Center
07:33AM 34.4028 -92.3616 165° South  Level FlightAware Approximate
07:33AM 34.5158 -92.2122 188° South 267 307 10,200  Level Memphis Center
07:34AM 34.3239 -92.4180 193° South  Level Estimated
07:34AM 34.4239 -92.2306 189° South 291 335 11,300  Level Memphis Center
07:35AM 34.3275 -92.2486 189° South 327 376 12,700 1,620 Climbing Memphis Center
07:36AM 34.2269 -92.2664 188° South 356 410 14,600 1,800 Climbing Memphis Center
07:37AM 34.1244 -92.2842 188° South 370 426 16,300 1,500 Climbing Memphis Center
07:38AM 34.0261 -92.3044 190° South 377 434 17,700 1,260 Climbing Memphis Center
07:40AM 33.8619 -92.3361 189° South 385 443 19,700 1,260 Climbing Fort Worth Center
07:41AM 33.7606 -92.3544 189° South 385 443 21,000 1,260 Climbing Fort Worth Center
07:42AM 33.6506 -92.3733 188° South 390 449 22,300 1,260 Climbing Fort Worth Center
07:43AM 33.5431 -92.3944 189° South 390 449 23,600 1,260 Climbing Fort Worth Center
07:44AM 33.4350 -92.4106 187° South 390 449 24,900 1,260 Climbing Fort Worth Center
07:45AM 33.3317 -92.4314 190° South 385 443 26,200 1,260 Climbing Fort Worth Center
07:46AM 33.2197 -92.4525 189° South 396 456 27,500 900 Climbing Fort Worth Center
07:47AM 33.1100 -92.4711 188° South 402 463 28,000 240 Climbing Fort Worth Center
07:48AM 32.9897 -92.4900 188° South 422 486 28,000  Level Fort Worth Center
07:49AM 32.8672 -92.5117 188° South 435 501 28,000  Level Fort Worth Center
07:51AM 32.6203 -92.5606 189° South 460 529 28,000  Level Houston Center
07:52AM 32.5044 -92.5831 189° South 460 529 28,000  Level Houston Center
07:53AM 32.3789 -92.6028 188° South 458 527 28,000  Level Houston Center
07:54AM 32.2614 -92.6825 210° Southwest 462 532 28,000  Level Houston Center
07:55AM 32.1581 -92.7683 215° Southwest 460 529 28,000  Level Houston Center
07:56AM 32.0617 -92.8492 215° Southwest 460 529 28,000  Level Houston Center
07:57AM 31.9564 -92.9364 215° Southwest 462 532 28,000  Level Houston Center
07:58AM 31.8461 -93.0303 216° Southwest 465 535 28,000  Level Houston Center
07:59AM 31.7253 -93.1236 213° Southwest 459 528 28,000  Level Houston Center
08:00AM 31.6219 -93.2128 216° Southwest 462 532 28,000  Level Houston Center
08:01AM 31.5125 -93.3036 215° Southwest 462 532 28,000  Level Houston Center
08:02AM 31.4072 -93.3886 215° Southwest 463 533 28,000  Level Houston Center
08:03AM 31.3019 -93.4739 215° Southwest 464 534 28,000  Level Houston Center
08:04AM 31.2014 -93.5567 215° Southwest 463 533 28,000  Level Houston Center
08:05AM 31.0956 -93.6411 214° Southwest 462 532 28,000 -300 Level Houston Center
08:06AM 30.9908 -93.7269 215° Southwest 463 533 27,500 -1,200 Descending Houston Center
08:07AM 30.8856 -93.8125 215° Southwest 464 534 25,600 -2,040 Descending Houston Center
08:08AM 30.7814 -93.8953 214° Southwest 457 526 23,400 -2,340 Descending Houston Center
08:09AM 30.6794 -93.9772 215° Southwest 449 517 20,900 -2,760 Descending Houston Center
08:10AM 30.5606 -94.0731 215° Southwest 441 507 17,900 -2,700 Descending Houston Center
08:11AM 30.4942 -94.1267 215° Southwest 425 489 16,200 -2,460 Descending Houston Center
08:12AM 30.4022 -94.1969 213° Southwest 406 467 13,900 -1,980 Descending Houston Center
08:13AM 30.3081 -94.2847 219° Southwest 385 443 12,200 -1,020 Descending Houston Center
08:14AM 30.2592 -94.3636 234° Southwest 371 427 12,000 -180 Descending Houston Center
08:15AM 30.2017 -94.4633 236° Southwest 371 427 11,900 -660 Descending Houston Center
08:16AM 30.1406 -94.5678 236° Southwest 320 368 10,700 -1,140 Descending Houston Center
08:17AM 30.0953 -94.6439 236° Southwest 307 353 9,700 -1,020 Descending Houston Center
08:17AM 30.0825 -94.6669 237° Southwest 317 365 9,300 -1,140 Descending Houston Center
08:18AM 30.0483 -94.7222 234° Southwest 299 344 8,600 -1,140 Descending Houston Center
08:18AM 30.0364 -94.7447 238° Southwest 301 346 8,200 -600 Descending Houston Center
08:19AM 30.0053 -94.8000 237° Southwest 285 328 8,000 -300 Descending Houston Center
08:19AM 29.9897 -94.8403 246° West 289 333 7,900 -720 Descending Houston Center
08:20AM 29.9892 -94.8939 269° West 284 327 7,200 -1,320 Descending Houston Center
08:21AM 29.9947 -94.9753 275° West 272 313 5,900 -1,500 Descending Houston Center
08:21AM 29.9942 -95.0153 269° West 270 311 5,100 -1,440 Descending Houston Center
08:22AM 29.9931 -95.0694 269° West 251 289 4,300 -1,260 Descending Houston Center
08:23AM 29.9936 -95.1419 271° West 224 258 3,100 -1,140 Descending Houston Center
08:24AM 29.9936 -95.2119 270° West 214 246 2,000 -960 Descending Houston Center
08:25AM 29.9922 -95.2650 268° West 151 174 1,200 -720 Descending Houston Center
08:26AM 29.9931 -95.3275 271° West 154 177 300 -660 Descending Houston Center